AEE8BP LGAV-LHBP
Flight info
| Callsign | AEE8BP |
|---|---|
| Flight time | 1h 38m |
| Altitude | 36000 |
| Route | KRO T162 NEVRA UT162 KOROS UN133 GIKAS DCT ATFIR DCT LOMOS DCT PADGU DCT DEGET DCT KEZAL |
| Aircraft | A320/M-SDE3FGHIRWY/LB1 |
Departure
| Time | 2026-05-07 11:02 |
|---|---|
| Airport | Athens Eleftherios Venizelos International Airport (LGAV) |
Arrival
| Time | 2026-05-07 12:40 |
|---|---|
| Airport | Budapest Liszt Ferenc International Airport (LHBP) |
| Time | Latitude | Longitude | Altitude | Speed | Heading |
|---|---|---|---|---|---|
| 2026-05-07 10:44 | 37.93871 | 23.95083 | 301 ft | 0 kts | 307° |
| 2026-05-07 10:52 | 37.93868 | 23.95089 | 302 ft | 4 kts | 307° |
| 2026-05-07 10:52 | 37.93853 | 23.95114 | 301 ft | 2 kts | 307° |
| 2026-05-07 10:53 | 37.93839 | 23.95137 | 300 ft | 4 kts | 309° |
| 2026-05-07 10:53 | 37.93821 | 23.95159 | 304 ft | 4 kts | 346° |
| 2026-05-07 10:53 | 37.93803 | 23.95153 | 300 ft | 4 kts | 38° |
| 2026-05-07 10:53 | 37.93794 | 23.95145 | 300 ft | 0 kts | 38° |
| 2026-05-07 10:57 | 37.93796 | 23.95146 | 300 ft | 1 kts | 38° |
| 2026-05-07 10:57 | 37.93810 | 23.95160 | 301 ft | 4 kts | 38° |
| 2026-05-07 10:57 | 37.93837 | 23.95188 | 300 ft | 6 kts | 42° |
| 2026-05-07 10:57 | 37.93864 | 23.95245 | 300 ft | 9 kts | 66° |
| 2026-05-07 10:58 | 37.93887 | 23.95333 | 299 ft | 12 kts | 83° |
| 2026-05-07 10:58 | 37.93850 | 23.95436 | 298 ft | 15 kts | 99° |
| 2026-05-07 10:58 | 37.93919 | 23.95537 | 301 ft | 17 kts | 36° |
| 2026-05-07 10:58 | 37.94018 | 23.95630 | 300 ft | 19 kts | 37° |
| 2026-05-07 10:59 | 37.94126 | 23.95733 | 298 ft | 20 kts | 37° |
| 2026-05-07 10:59 | 37.94242 | 23.95843 | 299 ft | 22 kts | 37° |
| 2026-05-07 10:59 | 37.94315 | 23.95912 | 300 ft | 9 kts | 36° |
| 2026-05-07 10:59 | 37.94332 | 23.95934 | 300 ft | 0 kts | 59° |
| 2026-05-07 11:00 | 37.94335 | 23.95952 | 299 ft | 6 kts | 82° |
| 2026-05-07 11:00 | 37.94295 | 23.96014 | 294 ft | 14 kts | 167° |
| 2026-05-07 11:00 | 37.94189 | 23.96004 | 285 ft | 11 kts | 170° |
| 2026-05-07 11:00 | 37.94115 | 23.96000 | 283 ft | 5 kts | 217° |
| 2026-05-07 11:01 | 37.93930 | 23.95824 | 279 ft | 69 kts | 217° |
| 2026-05-07 11:01 | 37.93384 | 23.95306 | 288 ft | 124 kts | 217° |
| 2026-05-07 11:01 | 37.92587 | 23.94549 | 424 ft | 154 kts | 218° |
| 2026-05-07 11:02 | 37.91719 | 23.93717 | 995 ft | 159 kts | 216° |
| 2026-05-07 11:02 | 37.90827 | 23.92863 | 1569 ft | 162 kts | 215° |
| 2026-05-07 11:02 | 37.89909 | 23.92010 | 2193 ft | 164 kts | 215° |
| 2026-05-07 11:02 | 37.88985 | 23.91180 | 2821 ft | 162 kts | 214° |
| 2026-05-07 11:03 | 37.88066 | 23.90362 | 3447 ft | 161 kts | 215° |
| 2026-05-07 11:03 | 37.87453 | 23.89803 | 3665 ft | 173 kts | 215° |
| 2026-05-07 11:03 | 37.86423 | 23.88839 | 3896 ft | 195 kts | 210° |
| 2026-05-07 11:03 | 37.85046 | 23.88468 | 4142 ft | 218 kts | 174° |
| 2026-05-07 11:04 | 37.83573 | 23.89239 | 4460 ft | 247 kts | 142° |
| 2026-05-07 11:04 | 37.82406 | 23.90957 | 5032 ft | 265 kts | 127° |
| 2026-05-07 11:04 | 37.81359 | 23.92912 | 5871 ft | 271 kts | 125° |
| 2026-05-07 11:04 | 37.80309 | 23.94913 | 6725 ft | 276 kts | 125° |
| 2026-05-07 11:05 | 37.79437 | 23.97095 | 7487 ft | 284 kts | 106° |
| 2026-05-07 11:05 | 37.79321 | 23.99606 | 8223 ft | 292 kts | 79° |
| 2026-05-07 11:05 | 37.80102 | 24.01976 | 8970 ft | 296 kts | 52° |
| 2026-05-07 11:05 | 37.81623 | 24.03686 | 9797 ft | 295 kts | 25° |
| 2026-05-07 11:06 | 37.83578 | 24.04385 | 10545 ft | 293 kts | 0° |
| 2026-05-07 11:06 | 37.85686 | 24.04331 | 10855 ft | 315 kts | 355° |
| 2026-05-07 11:06 | 37.87952 | 24.04165 | 11048 ft | 337 kts | 354° |
| 2026-05-07 11:06 | 37.90341 | 24.03962 | 11501 ft | 349 kts | 354° |
| 2026-05-07 11:07 | 37.92776 | 24.03755 | 12155 ft | 353 kts | 354° |
| 2026-05-07 11:07 | 37.95240 | 24.03554 | 12834 ft | 356 kts | 354° |
| 2026-05-07 11:07 | 37.97695 | 24.03364 | 13489 ft | 359 kts | 354° |
| 2026-05-07 11:07 | 38.00203 | 24.03182 | 14142 ft | 363 kts | 354° |
| 2026-05-07 11:08 | 38.02733 | 24.03004 | 14714 ft | 366 kts | 354° |
| 2026-05-07 11:08 | 38.05290 | 24.02825 | 15273 ft | 369 kts | 354° |
| 2026-05-07 11:08 | 38.07864 | 24.02644 | 15816 ft | 373 kts | 354° |
| 2026-05-07 11:08 | 38.10473 | 24.02458 | 16356 ft | 377 kts | 354° |
| 2026-05-07 11:09 | 38.13106 | 24.02265 | 16897 ft | 380 kts | 354° |
| 2026-05-07 11:09 | 38.15761 | 24.02069 | 17435 ft | 384 kts | 354° |
| 2026-05-07 11:09 | 38.18445 | 24.01874 | 17995 ft | 388 kts | 354° |
| 2026-05-07 11:09 | 38.21156 | 24.01681 | 18531 ft | 392 kts | 354° |
| 2026-05-07 11:10 | 38.23899 | 24.01484 | 19029 ft | 396 kts | 354° |
| 2026-05-07 11:10 | 38.26659 | 24.01287 | 19542 ft | 399 kts | 354° |
| 2026-05-07 11:10 | 38.29434 | 24.01087 | 20059 ft | 401 kts | 354° |
| 2026-05-07 11:10 | 38.32236 | 24.00881 | 20574 ft | 404 kts | 354° |
| 2026-05-07 11:11 | 38.35047 | 24.00674 | 21069 ft | 407 kts | 354° |
| 2026-05-07 11:11 | 38.37882 | 24.00466 | 21539 ft | 410 kts | 353° |
| 2026-05-07 11:11 | 38.40737 | 24.00256 | 21998 ft | 412 kts | 353° |
| 2026-05-07 11:11 | 38.43577 | 24.00047 | 22452 ft | 415 kts | 353° |
| 2026-05-07 11:12 | 38.46470 | 23.99832 | 22903 ft | 418 kts | 353° |
| 2026-05-07 11:12 | 38.49383 | 23.99618 | 23352 ft | 421 kts | 353° |
| 2026-05-07 11:12 | 38.52320 | 23.99405 | 23780 ft | 423 kts | 353° |
| 2026-05-07 11:12 | 38.55270 | 23.99192 | 24155 ft | 426 kts | 353° |
| 2026-05-07 11:13 | 38.58235 | 23.98977 | 24542 ft | 428 kts | 353° |
| 2026-05-07 11:13 | 38.61217 | 23.98765 | 24917 ft | 430 kts | 353° |
| 2026-05-07 11:13 | 38.64214 | 23.98552 | 25287 ft | 433 kts | 353° |
| 2026-05-07 11:13 | 38.67226 | 23.98335 | 25658 ft | 434 kts | 353° |
| 2026-05-07 11:14 | 38.70258 | 23.98113 | 26019 ft | 437 kts | 353° |
| 2026-05-07 11:14 | 38.73299 | 23.97886 | 26374 ft | 439 kts | 353° |
| 2026-05-07 11:14 | 38.76356 | 23.97656 | 26736 ft | 441 kts | 353° |
| 2026-05-07 11:14 | 38.79429 | 23.97424 | 27095 ft | 443 kts | 353° |
| 2026-05-07 11:15 | 38.82523 | 23.97192 | 27472 ft | 446 kts | 353° |
| 2026-05-07 11:15 | 38.85626 | 23.96965 | 27824 ft | 448 kts | 353° |
| 2026-05-07 11:15 | 38.88746 | 23.96738 | 28173 ft | 450 kts | 353° |
| 2026-05-07 11:15 | 38.91876 | 23.96511 | 28511 ft | 452 kts | 353° |
| 2026-05-07 11:16 | 38.95032 | 23.96279 | 28860 ft | 455 kts | 353° |
| 2026-05-07 11:16 | 38.98189 | 23.96041 | 29327 ft | 454 kts | 353° |
| 2026-05-07 11:16 | 39.01334 | 23.95801 | 29837 ft | 452 kts | 353° |
| 2026-05-07 11:16 | 39.04471 | 23.95564 | 30313 ft | 451 kts | 353° |
| 2026-05-07 11:17 | 39.07610 | 23.95327 | 30725 ft | 451 kts | 353° |
| 2026-05-07 11:17 | 39.10691 | 23.95098 | 31153 ft | 449 kts | 353° |
| 2026-05-07 11:17 | 39.13805 | 23.94869 | 31608 ft | 447 kts | 353° |
| 2026-05-07 11:17 | 39.16907 | 23.94642 | 32063 ft | 446 kts | 353° |
| 2026-05-07 11:18 | 39.19997 | 23.94416 | 32531 ft | 444 kts | 353° |
| 2026-05-07 11:18 | 39.23075 | 23.94188 | 33007 ft | 442 kts | 353° |
| 2026-05-07 11:18 | 39.26142 | 23.93960 | 33446 ft | 441 kts | 353° |
| 2026-05-07 11:18 | 39.29210 | 23.93730 | 33887 ft | 440 kts | 353° |
| 2026-05-07 11:19 | 39.32261 | 23.93500 | 34295 ft | 439 kts | 353° |
| 2026-05-07 11:19 | 39.35320 | 23.93271 | 34673 ft | 438 kts | 352° |
| 2026-05-07 11:19 | 39.38358 | 23.93045 | 35048 ft | 437 kts | 352° |
| 2026-05-07 11:19 | 39.41386 | 23.92818 | 35420 ft | 435 kts | 352° |
| 2026-05-07 11:20 | 39.44403 | 23.92593 | 35796 ft | 434 kts | 352° |
| 2026-05-07 11:20 | 39.47412 | 23.92366 | 36074 ft | 433 kts | 352° |
| 2026-05-07 11:20 | 39.53472 | 23.91901 | 36133 ft | 439 kts | 352° |
| 2026-05-07 11:21 | 39.59582 | 23.91443 | 36135 ft | 440 kts | 352° |
| 2026-05-07 11:21 | 39.65699 | 23.90987 | 36150 ft | 440 kts | 352° |
| 2026-05-07 11:22 | 39.71826 | 23.90525 | 36140 ft | 441 kts | 352° |
| 2026-05-07 11:22 | 39.77918 | 23.90063 | 36140 ft | 442 kts | 352° |
| 2026-05-07 11:23 | 39.84061 | 23.89603 | 36134 ft | 442 kts | 352° |
| 2026-05-07 11:23 | 39.90200 | 23.89140 | 36139 ft | 442 kts | 352° |
| 2026-05-07 11:24 | 39.96341 | 23.88674 | 36141 ft | 442 kts | 352° |
| 2026-05-07 11:24 | 40.02490 | 23.88202 | 36140 ft | 442 kts | 352° |
| 2026-05-07 11:25 | 40.08630 | 23.87727 | 36152 ft | 442 kts | 352° |
| 2026-05-07 11:25 | 40.14785 | 23.87247 | 36151 ft | 443 kts | 352° |
| 2026-05-07 11:26 | 40.20935 | 23.86780 | 36154 ft | 443 kts | 352° |
| 2026-05-07 11:26 | 40.27081 | 23.86316 | 36150 ft | 442 kts | 352° |
| 2026-05-07 11:27 | 40.33192 | 23.85843 | 36150 ft | 442 kts | 352° |
| 2026-05-07 11:27 | 40.39334 | 23.85362 | 36146 ft | 442 kts | 352° |
| 2026-05-07 11:28 | 40.45477 | 23.84883 | 36145 ft | 442 kts | 352° |
| 2026-05-07 11:28 | 40.51619 | 23.84410 | 36156 ft | 442 kts | 352° |
| 2026-05-07 11:29 | 40.57766 | 23.83945 | 36152 ft | 442 kts | 352° |
| 2026-05-07 11:29 | 40.63919 | 23.83476 | 36149 ft | 442 kts | 352° |
| 2026-05-07 11:30 | 40.70065 | 23.82987 | 36150 ft | 442 kts | 352° |
| 2026-05-07 11:30 | 40.76214 | 23.82501 | 36144 ft | 443 kts | 352° |
| 2026-05-07 11:31 | 40.82332 | 23.82030 | 36140 ft | 443 kts | 352° |
| 2026-05-07 11:31 | 40.88492 | 23.81553 | 36139 ft | 444 kts | 352° |
| 2026-05-07 11:32 | 40.97738 | 23.80817 | 36145 ft | 444 kts | 352° |
| 2026-05-07 11:33 | 41.03906 | 23.80338 | 36145 ft | 444 kts | 352° |
| 2026-05-07 11:33 | 41.10075 | 23.79858 | 36149 ft | 444 kts | 352° |
| 2026-05-07 11:34 | 41.16252 | 23.79365 | 36137 ft | 444 kts | 352° |
| 2026-05-07 11:34 | 41.22386 | 23.78874 | 36136 ft | 444 kts | 352° |
| 2026-05-07 11:35 | 41.28561 | 23.78385 | 36134 ft | 445 kts | 352° |
| 2026-05-07 11:35 | 41.34748 | 23.77904 | 36142 ft | 445 kts | 352° |
| 2026-05-07 11:36 | 41.40924 | 23.77327 | 36137 ft | 442 kts | 347° |
| 2026-05-07 11:36 | 41.47006 | 23.76050 | 36135 ft | 443 kts | 346° |
| 2026-05-07 11:37 | 41.53087 | 23.74775 | 36153 ft | 442 kts | 346° |
| 2026-05-07 11:37 | 41.59173 | 23.73512 | 36150 ft | 443 kts | 347° |
| 2026-05-07 11:38 | 41.65273 | 23.72237 | 36127 ft | 444 kts | 347° |
| 2026-05-07 11:38 | 41.71373 | 23.70959 | 36137 ft | 444 kts | 346° |
| 2026-05-07 11:39 | 41.77485 | 23.69673 | 36132 ft | 445 kts | 347° |
| 2026-05-07 11:39 | 41.83609 | 23.68392 | 36134 ft | 445 kts | 347° |
| 2026-05-07 11:40 | 41.89731 | 23.67112 | 36134 ft | 445 kts | 347° |
| 2026-05-07 11:40 | 41.95851 | 23.65821 | 36140 ft | 445 kts | 346° |
| 2026-05-07 11:41 | 42.01979 | 23.64519 | 36137 ft | 445 kts | 346° |
| 2026-05-07 11:41 | 42.08108 | 23.63216 | 36130 ft | 445 kts | 347° |
| 2026-05-07 11:42 | 42.14186 | 23.61924 | 36148 ft | 445 kts | 347° |
| 2026-05-07 11:42 | 42.20352 | 23.60616 | 36140 ft | 446 kts | 347° |
| 2026-05-07 11:43 | 42.26438 | 23.59325 | 36135 ft | 446 kts | 347° |
| 2026-05-07 11:43 | 42.32572 | 23.58010 | 36135 ft | 447 kts | 347° |
| 2026-05-07 11:44 | 42.38708 | 23.56695 | 36133 ft | 446 kts | 347° |
| 2026-05-07 11:44 | 42.44849 | 23.55387 | 36133 ft | 446 kts | 347° |
| 2026-05-07 11:45 | 42.50986 | 23.54074 | 36133 ft | 446 kts | 347° |
| 2026-05-07 11:45 | 42.57122 | 23.52754 | 36129 ft | 446 kts | 347° |
| 2026-05-07 11:46 | 42.63258 | 23.51429 | 36125 ft | 446 kts | 347° |
| 2026-05-07 11:46 | 42.69360 | 23.50113 | 36122 ft | 447 kts | 347° |
| 2026-05-07 11:47 | 42.75545 | 23.48775 | 36124 ft | 447 kts | 347° |
| 2026-05-07 11:47 | 42.81648 | 23.47441 | 36123 ft | 447 kts | 347° |
| 2026-05-07 11:48 | 42.87788 | 23.46108 | 36113 ft | 447 kts | 347° |
| 2026-05-07 11:48 | 42.93938 | 23.44776 | 36116 ft | 447 kts | 347° |
| 2026-05-07 11:49 | 43.00086 | 23.43431 | 36120 ft | 447 kts | 347° |
| 2026-05-07 11:49 | 43.06228 | 23.42082 | 36112 ft | 447 kts | 347° |
| 2026-05-07 11:50 | 43.12375 | 23.40739 | 36104 ft | 448 kts | 347° |
| 2026-05-07 11:50 | 43.18531 | 23.39388 | 36089 ft | 448 kts | 347° |
| 2026-05-07 11:51 | 43.24679 | 23.38039 | 36089 ft | 448 kts | 347° |
| 2026-05-07 11:51 | 43.29801 | 23.36916 | 36084 ft | 448 kts | 347° |
| 2026-05-07 11:52 | 43.35957 | 23.35558 | 36087 ft | 448 kts | 347° |
| 2026-05-07 11:52 | 43.42126 | 23.34187 | 36068 ft | 450 kts | 347° |
| 2026-05-07 11:53 | 43.48312 | 23.32816 | 36067 ft | 451 kts | 347° |
| 2026-05-07 11:53 | 43.54508 | 23.31447 | 36070 ft | 451 kts | 346° |
| 2026-05-07 11:54 | 43.60722 | 23.30061 | 36071 ft | 452 kts | 346° |
| 2026-05-07 11:54 | 43.66890 | 23.28679 | 36068 ft | 452 kts | 346° |
| 2026-05-07 11:55 | 43.73111 | 23.27284 | 36070 ft | 453 kts | 346° |
| 2026-05-07 11:55 | 43.79341 | 23.25893 | 36069 ft | 454 kts | 346° |
| 2026-05-07 11:56 | 43.85372 | 23.23630 | 36064 ft | 445 kts | 331° |
| 2026-05-07 11:56 | 43.90948 | 23.19915 | 36063 ft | 444 kts | 329° |
| 2026-05-07 11:57 | 43.96521 | 23.16208 | 36076 ft | 445 kts | 329° |
| 2026-05-07 11:57 | 44.02095 | 23.12493 | 36085 ft | 444 kts | 329° |
| 2026-05-07 11:58 | 44.07678 | 23.08758 | 36074 ft | 445 kts | 329° |
| 2026-05-07 11:58 | 44.13261 | 23.05005 | 36067 ft | 446 kts | 329° |
| 2026-05-07 11:59 | 44.18856 | 23.01246 | 36070 ft | 447 kts | 329° |
| 2026-05-07 11:59 | 44.24450 | 22.97482 | 36082 ft | 447 kts | 329° |
| 2026-05-07 12:00 | 44.30049 | 22.93694 | 36093 ft | 447 kts | 329° |
| 2026-05-07 12:00 | 44.35605 | 22.89918 | 36078 ft | 448 kts | 329° |
| 2026-05-07 12:01 | 44.41219 | 22.86103 | 36076 ft | 449 kts | 329° |
| 2026-05-07 12:01 | 44.46837 | 22.82298 | 36076 ft | 449 kts | 329° |
| 2026-05-07 12:02 | 44.52463 | 22.78472 | 36081 ft | 449 kts | 329° |
| 2026-05-07 12:02 | 44.58082 | 22.74624 | 36082 ft | 449 kts | 329° |
| 2026-05-07 12:03 | 44.63709 | 22.70769 | 36082 ft | 450 kts | 329° |
| 2026-05-07 12:03 | 44.69329 | 22.66922 | 36088 ft | 449 kts | 329° |
| 2026-05-07 12:04 | 44.74945 | 22.63058 | 36097 ft | 449 kts | 329° |
| 2026-05-07 12:04 | 44.80541 | 22.59146 | 36096 ft | 448 kts | 328° |
| 2026-05-07 12:05 | 44.86035 | 22.54985 | 36086 ft | 448 kts | 326° |
| 2026-05-07 12:05 | 44.91499 | 22.50736 | 36080 ft | 449 kts | 326° |
| 2026-05-07 12:06 | 44.96953 | 22.46536 | 36079 ft | 449 kts | 326° |
| 2026-05-07 12:06 | 45.02460 | 22.42342 | 36076 ft | 450 kts | 327° |
| 2026-05-07 12:07 | 45.07971 | 22.38151 | 36086 ft | 450 kts | 326° |
| 2026-05-07 12:07 | 45.13482 | 22.33934 | 36065 ft | 451 kts | 326° |
| 2026-05-07 12:08 | 45.18997 | 22.29689 | 36068 ft | 451 kts | 326° |
| 2026-05-07 12:08 | 45.24506 | 22.25443 | 36066 ft | 450 kts | 326° |
| 2026-05-07 12:09 | 45.30017 | 22.21206 | 36070 ft | 450 kts | 326° |
| 2026-05-07 12:09 | 45.35524 | 22.16944 | 36072 ft | 450 kts | 326° |
| 2026-05-07 12:10 | 45.41019 | 22.12671 | 36075 ft | 450 kts | 326° |
| 2026-05-07 12:10 | 45.46513 | 22.08397 | 36068 ft | 450 kts | 326° |
| 2026-05-07 12:11 | 45.52007 | 22.04130 | 36060 ft | 449 kts | 326° |
| 2026-05-07 12:11 | 45.57491 | 21.99863 | 36049 ft | 449 kts | 326° |
| 2026-05-07 12:12 | 45.62930 | 21.95614 | 36058 ft | 449 kts | 327° |
| 2026-05-07 12:12 | 45.68409 | 21.91329 | 36060 ft | 449 kts | 327° |
| 2026-05-07 12:13 | 45.73892 | 21.87033 | 36058 ft | 449 kts | 327° |
| 2026-05-07 12:13 | 45.79371 | 21.82720 | 36057 ft | 449 kts | 326° |
| 2026-05-07 12:14 | 45.84840 | 21.78396 | 36045 ft | 449 kts | 326° |
| 2026-05-07 12:14 | 45.90323 | 21.74052 | 36056 ft | 449 kts | 327° |
| 2026-05-07 12:15 | 45.95800 | 21.69720 | 36065 ft | 449 kts | 327° |
| 2026-05-07 12:15 | 46.01272 | 21.65384 | 36060 ft | 449 kts | 327° |
| 2026-05-07 12:16 | 46.06734 | 21.61013 | 36051 ft | 449 kts | 327° |
| 2026-05-07 12:16 | 46.12206 | 21.56637 | 36045 ft | 449 kts | 327° |
| 2026-05-07 12:17 | 46.17672 | 21.52270 | 36067 ft | 450 kts | 326° |
| 2026-05-07 12:17 | 46.23152 | 21.47880 | 36056 ft | 450 kts | 326° |
| 2026-05-07 12:18 | 46.28628 | 21.43477 | 36051 ft | 451 kts | 326° |
| 2026-05-07 12:18 | 46.34066 | 21.39090 | 35380 ft | 449 kts | 324° |
| 2026-05-07 12:18 | 46.36539 | 21.36412 | 34771 ft | 440 kts | 310° |
| 2026-05-07 12:19 | 46.38473 | 21.33045 | 34178 ft | 434 kts | 302° |
| 2026-05-07 12:19 | 46.40293 | 21.29525 | 33361 ft | 437 kts | 301° |
| 2026-05-07 12:19 | 46.42112 | 21.25969 | 32513 ft | 440 kts | 301° |
| 2026-05-07 12:19 | 46.43935 | 21.22389 | 31707 ft | 443 kts | 301° |
| 2026-05-07 12:20 | 46.45767 | 21.18789 | 30908 ft | 445 kts | 301° |
| 2026-05-07 12:20 | 46.47614 | 21.15167 | 30090 ft | 447 kts | 301° |
| 2026-05-07 12:20 | 46.49462 | 21.11546 | 29252 ft | 446 kts | 302° |
| 2026-05-07 12:20 | 46.51306 | 21.07936 | 28595 ft | 442 kts | 302° |
| 2026-05-07 12:21 | 46.53129 | 21.04371 | 27935 ft | 438 kts | 302° |
| 2026-05-07 12:21 | 46.54932 | 21.00837 | 27321 ft | 433 kts | 302° |
| 2026-05-07 12:21 | 46.56712 | 20.97333 | 26713 ft | 429 kts | 302° |
| 2026-05-07 12:21 | 46.58466 | 20.93864 | 26094 ft | 425 kts | 302° |
| 2026-05-07 12:22 | 46.60206 | 20.90413 | 25482 ft | 422 kts | 302° |
| 2026-05-07 12:22 | 46.61932 | 20.86987 | 24878 ft | 418 kts | 302° |
| 2026-05-07 12:22 | 46.63648 | 20.83583 | 24284 ft | 415 kts | 302° |
| 2026-05-07 12:22 | 46.65351 | 20.80203 | 23699 ft | 413 kts | 302° |
| 2026-05-07 12:23 | 46.67041 | 20.76847 | 23041 ft | 410 kts | 302° |
| 2026-05-07 12:23 | 46.68724 | 20.73504 | 22416 ft | 407 kts | 302° |
| 2026-05-07 12:23 | 46.70388 | 20.70197 | 21803 ft | 404 kts | 302° |
| 2026-05-07 12:23 | 46.72042 | 20.66903 | 21196 ft | 402 kts | 302° |
| 2026-05-07 12:24 | 46.73667 | 20.63665 | 20636 ft | 399 kts | 303° |
| 2026-05-07 12:24 | 46.75323 | 20.60369 | 20089 ft | 397 kts | 303° |
| 2026-05-07 12:24 | 46.76947 | 20.57133 | 19551 ft | 394 kts | 303° |
| 2026-05-07 12:24 | 46.78536 | 20.53960 | 19015 ft | 392 kts | 303° |
| 2026-05-07 12:25 | 46.80139 | 20.50748 | 18461 ft | 390 kts | 303° |
| 2026-05-07 12:25 | 46.81727 | 20.47557 | 17871 ft | 387 kts | 303° |
| 2026-05-07 12:25 | 46.83306 | 20.44382 | 17283 ft | 384 kts | 303° |
| 2026-05-07 12:25 | 46.84866 | 20.41241 | 16753 ft | 381 kts | 303° |
| 2026-05-07 12:26 | 46.86419 | 20.38117 | 16267 ft | 379 kts | 303° |
| 2026-05-07 12:26 | 46.87961 | 20.35011 | 15830 ft | 376 kts | 303° |
| 2026-05-07 12:26 | 46.89491 | 20.31924 | 15367 ft | 373 kts | 303° |
| 2026-05-07 12:26 | 46.91007 | 20.28861 | 14856 ft | 370 kts | 303° |
| 2026-05-07 12:27 | 46.92510 | 20.25819 | 14324 ft | 368 kts | 303° |
| 2026-05-07 12:27 | 46.94005 | 20.22791 | 13792 ft | 365 kts | 303° |
| 2026-05-07 12:27 | 46.95489 | 20.19787 | 13208 ft | 362 kts | 304° |
| 2026-05-07 12:27 | 46.96936 | 20.16856 | 12649 ft | 359 kts | 303° |
| 2026-05-07 12:28 | 46.98389 | 20.13901 | 12089 ft | 356 kts | 303° |
| 2026-05-07 12:28 | 46.99823 | 20.10979 | 11530 ft | 353 kts | 304° |
| 2026-05-07 12:28 | 47.01251 | 20.08068 | 10992 ft | 350 kts | 304° |
| 2026-05-07 12:28 | 47.02666 | 20.05186 | 10478 ft | 347 kts | 303° |
| 2026-05-07 12:29 | 47.04069 | 20.02331 | 9970 ft | 344 kts | 303° |
| 2026-05-07 12:29 | 47.05431 | 19.99557 | 9797 ft | 323 kts | 303° |
| 2026-05-07 12:29 | 47.06698 | 19.96983 | 9647 ft | 299 kts | 303° |
| 2026-05-07 12:29 | 47.07891 | 19.94559 | 9296 ft | 289 kts | 303° |
| 2026-05-07 12:30 | 47.09056 | 19.92175 | 8814 ft | 286 kts | 302° |
| 2026-05-07 12:30 | 47.10205 | 19.89817 | 8333 ft | 283 kts | 303° |
| 2026-05-07 12:30 | 47.11343 | 19.87478 | 7821 ft | 280 kts | 303° |
| 2026-05-07 12:30 | 47.12471 | 19.85161 | 7304 ft | 278 kts | 303° |
| 2026-05-07 12:31 | 47.13582 | 19.82875 | 6783 ft | 275 kts | 303° |
| 2026-05-07 12:31 | 47.14696 | 19.80589 | 6343 ft | 275 kts | 302° |
| 2026-05-07 12:31 | 47.15804 | 19.78310 | 6100 ft | 274 kts | 302° |
| 2026-05-07 12:31 | 47.16908 | 19.76034 | 5912 ft | 273 kts | 302° |
| 2026-05-07 12:32 | 47.18007 | 19.73764 | 5715 ft | 272 kts | 301° |
| 2026-05-07 12:32 | 47.19104 | 19.71495 | 5510 ft | 271 kts | 302° |
| 2026-05-07 12:32 | 47.20194 | 19.69236 | 5315 ft | 270 kts | 302° |
| 2026-05-07 12:32 | 47.21268 | 19.67013 | 5143 ft | 264 kts | 302° |
| 2026-05-07 12:33 | 47.23302 | 19.62820 | 4798 ft | 243 kts | 302° |
| 2026-05-07 12:33 | 47.24260 | 19.60840 | 4618 ft | 237 kts | 302° |
| 2026-05-07 12:33 | 47.25202 | 19.58889 | 4443 ft | 231 kts | 301° |
| 2026-05-07 12:34 | 47.26116 | 19.56989 | 4255 ft | 224 kts | 301° |
| 2026-05-07 12:34 | 47.27007 | 19.55141 | 4081 ft | 218 kts | 301° |
| 2026-05-07 12:34 | 47.27874 | 19.53345 | 3902 ft | 213 kts | 302° |
| 2026-05-07 12:34 | 47.28729 | 19.51572 | 3733 ft | 210 kts | 302° |
| 2026-05-07 12:35 | 47.29563 | 19.49841 | 3559 ft | 206 kts | 302° |
| 2026-05-07 12:35 | 47.30488 | 19.48246 | 3392 ft | 204 kts | 311° |
| 2026-05-07 12:35 | 47.31470 | 19.46755 | 3225 ft | 199 kts | 309° |
| 2026-05-07 12:35 | 47.32390 | 19.45310 | 3086 ft | 188 kts | 308° |
| 2026-05-07 12:36 | 47.33256 | 19.43927 | 2979 ft | 183 kts | 308° |
| 2026-05-07 12:36 | 47.34116 | 19.42547 | 2775 ft | 183 kts | 309° |
| 2026-05-07 12:36 | 47.34974 | 19.41169 | 2537 ft | 182 kts | 309° |
| 2026-05-07 12:36 | 47.35811 | 19.39827 | 2315 ft | 171 kts | 309° |
| 2026-05-07 12:37 | 47.36580 | 19.38594 | 2089 ft | 157 kts | 308° |
| 2026-05-07 12:37 | 47.37290 | 19.37453 | 1882 ft | 146 kts | 307° |
| 2026-05-07 12:37 | 47.37963 | 19.36363 | 1702 ft | 142 kts | 304° |
| 2026-05-07 12:37 | 47.38623 | 19.35288 | 1509 ft | 141 kts | 304° |
| 2026-05-07 12:38 | 47.39282 | 19.34226 | 1300 ft | 140 kts | 305° |
| 2026-05-07 12:38 | 47.39945 | 19.33168 | 1136 ft | 141 kts | 305° |
| 2026-05-07 12:38 | 47.40613 | 19.32106 | 932 ft | 141 kts | 304° |
| 2026-05-07 12:38 | 47.41052 | 19.31405 | 812 ft | 140 kts | 302° |
| 2026-05-07 12:39 | 47.41708 | 19.30351 | 632 ft | 138 kts | 301° |
| 2026-05-07 12:39 | 47.42356 | 19.29296 | 464 ft | 139 kts | 302° |
| 2026-05-07 12:39 | 47.42929 | 19.28356 | 455 ft | 102 kts | 313° |
| 2026-05-07 12:39 | 47.43331 | 19.27714 | 465 ft | 71 kts | 312° |
| 2026-05-07 12:40 | 47.43617 | 19.27246 | 474 ft | 33 kts | 311° |
| 2026-05-07 12:40 | 47.43681 | 19.27136 | 474 ft | 3 kts | 303° |
| 2026-05-07 12:40 | 47.43706 | 19.27068 | 470 ft | 11 kts | 294° |
| 2026-05-07 12:40 | 47.43737 | 19.26945 | 470 ft | 14 kts | 287° |
| 2026-05-07 12:41 | 47.43761 | 19.26799 | 464 ft | 11 kts | 282° |
| 2026-05-07 12:41 | 47.43780 | 19.26670 | 461 ft | 13 kts | 283° |
| 2026-05-07 12:41 | 47.43801 | 19.26529 | 459 ft | 13 kts | 281° |
| 2026-05-07 12:41 | 47.43751 | 19.26415 | 458 ft | 13 kts | 221° |
| 2026-05-07 12:42 | 47.43703 | 19.26354 | 458 ft | 10 kts | 221° |
| 2026-05-07 12:42 | 47.43643 | 19.26272 | 456 ft | 13 kts | 223° |
| 2026-05-07 12:42 | 47.43583 | 19.26193 | 457 ft | 8 kts | 223° |
| 2026-05-07 12:42 | 47.43533 | 19.26163 | 457 ft | 9 kts | 176° |
| 2026-05-07 12:43 | 47.43481 | 19.26167 | 457 ft | 7 kts | 177° |
| 2026-05-07 12:43 | 47.43451 | 19.26169 | 457 ft | 0 kts | 177° |
| 2026-05-07 12:43 | 47.43450 | 19.26169 | 457 ft | 0 kts | 177° |
| 2026-05-07 12:43 | 47.43448 | 19.26170 | 456 ft | 0 kts | 177° |